Garner, Iowa
Current Conditions -  °F | °C
As of 2:55 AM on Wednesday 22 Oct 2014 (Local Time) from KFXY Reporting Station
Clear Clear  
Wind Chill: 33°   Ceiling: Unl
Heat Index: 41°   Visibility: 10mi
Dew Point: 37°   Wind: 14mph
Humidity: 87%   Direction: 130°SE
Pressure: 30.19"   Gusts: NA
Location:  43.1°N, 93.6°W
Report Text: KFXY 220755Z AUTO 13012KT 10SM CLR 05/03 A3019 RMK AO2
Loading
Personal Weather Stations






























Interactive Weather Map
Tropical Storm Tracking
New forecast layout! Learn more

10-Day Weather Forecast

Advertisements
Track Severe Weather on mobile